Hood Army Air Field Fort Hood(Killeen) US
ICAO: KHLR
IATA: HLR
Category: Medium
Scheduled Services: No

Elevation: 924 ft
TransAlt. 18000 ft.

Airport Communications:
GRAY APP/DEP:120.075
CLNC DEL:22.54
GND:133.85
RANGE CON:30.45
FORT HOOD FLT FLW:143.1
PMSV GRAY METRO:41.2
TWR:119.65

KHLR Zoom In..

If you have problems with the map follow the link
https://www.worldairports.se/pages/airport.php?
ICAO=KHLR

Runways:

(A) RW 16 length 3701 ft width 144 ft
---- / hdg 158

(B) RW 34 length 3701 ft width 144 ft
---- / hdg 338

Location; KHLR
Day. 14 / Time. 22.07 Zulu
* Altimeter: 30.03
* Temperature: 09° c. 48.2°f.
* Wind from: 330° Speed 18 kn with Gusts up to 26 kn.
Dewpoint: 04° c.
Visibility: 4 Statute Miles.
Clouds: Scattered 800 ft.
Clouds: Broken 1400 ft.
Clouds: Overcast 2300 ft.
Clouds: Broken 00 ft.
Clouds: Scattered 00 ft.
Conditions: Light Rain.

KHLR 142207Z AUTO 33018G26KT 4SM -RA SCT008 BKN014 OVC023 09/04 A3003 RMK AO2 RAB07 CIG 014V022 BKN V SCT SLP171


Wind From 330°
Speed 18 kn.

 
 
jpsmedia.com for Web Design worldairports.se 2018   terms of use